sensor_id;sensor_type;location;lat;lon;timestamp;temperature;humidity
41722;DHT22;27407;24.142;-110.310;2023-04-29T00:01:41;39.10;48.70
41722;DHT22;27407;24.142;-110.310;2023-04-29T00:04:08;39.30;48.40
41722;DHT22;27407;24.142;-110.310;2023-04-29T00:06:34;38.80;48.80
41722;DHT22;27407;24.142;-110.310;2023-04-29T00:09:02;38.40;48.90
41722;DHT22;27407;24.142;-110.310;2023-04-29T00:11:29;38.20;49.50
41722;DHT22;27407;24.142;-110.310;2023-04-29T00:13:56;38.50;49.20
41722;DHT22;27407;24.142;-110.310;2023-04-29T00:16:23;38.00;49.90
41722;DHT22;27407;24.142;-110.310;2023-04-29T00:18:49;38.10;49.80
41722;DHT22;27407;24.142;-110.310;2023-04-29T00:21:16;38.10;49.60
41722;DHT22;27407;24.142;-110.310;2023-04-29T00:23:42;37.70;49.80
41722;DHT22;27407;24.142;-110.310;2023-04-29T00:26:09;37.30;50.50
41722;DHT22;27407;24.142;-110.310;2023-04-29T00:28:36;37.60;50.10
41722;DHT22;27407;24.142;-110.310;2023-04-29T00:31:03;37.20;50.30
41722;DHT22;27407;24.142;-110.310;2023-04-29T00:33:29;36.90;50.90
41722;DHT22;27407;24.142;-110.310;2023-04-29T00:35:56;37.10;50.50
41722;DHT22;27407;24.142;-110.310;2023-04-29T00:38:23;36.70;50.90
41722;DHT22;27407;24.142;-110.310;2023-04-29T00:40:50;36.50;51.20
41722;DHT22;27407;24.142;-110.310;2023-04-29T00:43:16;36.50;51.60
41722;DHT22;27407;24.142;-110.310;2023-04-29T00:45:43;36.00;51.60
41722;DHT22;27407;24.142;-110.310;2023-04-29T00:48:12;35.90;52.60
41722;DHT22;27407;24.142;-110.310;2023-04-29T00:50:40;35.60;52.40
41722;DHT22;27407;24.142;-110.310;2023-04-29T00:53:11;35.80;52.30
41722;DHT22;27407;24.142;-110.310;2023-04-29T00:55:40;35.70;52.40
41722;DHT22;27407;24.142;-110.310;2023-04-29T00:58:09;35.20;53.10
41722;DHT22;27407;24.142;-110.310;2023-04-29T01:00:37;35.10;53.40
41722;DHT22;27407;24.142;-110.310;2023-04-29T01:03:04;34.60;53.90
41722;DHT22;27407;24.142;-110.310;2023-04-29T01:05:31;34.60;54.30
41722;DHT22;27407;24.142;-110.310;2023-04-29T01:08:43;34.40;55.20
41722;DHT22;27407;24.142;-110.310;2023-04-29T01:11:15;33.60;57.30
41722;DHT22;27407;24.142;-110.310;2023-04-29T01:13:50;33.40;57.30
41722;DHT22;27407;24.142;-110.310;2023-04-29T01:18:48;33.40;57.40
41722;DHT22;27407;24.142;-110.310;2023-04-29T01:21:15;33.30;57.70
41722;DHT22;27407;24.142;-110.310;2023-04-29T01:23:43;32.90;58.30
41722;DHT22;27407;24.142;-110.310;2023-04-29T01:26:10;32.30;59.60
41722;DHT22;27407;24.142;-110.310;2023-04-29T01:29:01;31.80;60.60
41722;DHT22;27407;24.142;-110.310;2023-04-29T01:31:55;31.30;61.60
41722;DHT22;27407;24.142;-110.310;2023-04-29T01:40:16;29.70;67.10
41722;DHT22;27407;24.142;-110.310;2023-04-29T01:42:46;29.50;68.30
41722;DHT22;27407;24.142;-110.310;2023-04-29T01:45:17;29.30;68.90
41722;DHT22;27407;24.142;-110.310;2023-04-29T01:47:46;29.00;70.00
41722;DHT22;27407;24.142;-110.310;2023-04-29T01:50:14;28.90;70.60
41722;DHT22;27407;24.142;-110.310;2023-04-29T01:52:40;28.90;71.00
41722;DHT22;27407;24.142;-110.310;2023-04-29T01:55:08;28.60;71.70
41722;DHT22;27407;24.142;-110.310;2023-04-29T01:57:36;28.60;72.60
41722;DHT22;27407;24.142;-110.310;2023-04-29T02:00:02;28.40;73.90
41722;DHT22;27407;24.142;-110.310;2023-04-29T02:02:29;28.40;74.40
41722;DHT22;27407;24.142;-110.310;2023-04-29T02:04:56;28.10;75.40
41722;DHT22;27407;24.142;-110.310;2023-04-29T02:07:23;28.00;76.00
41722;DHT22;27407;24.142;-110.310;2023-04-29T02:09:52;27.80;77.20
41722;DHT22;27407;24.142;-110.310;2023-04-29T02:12:19;27.70;77.50
41722;DHT22;27407;24.142;-110.310;2023-04-29T02:14:45;27.50;78.90
41722;DHT22;27407;24.142;-110.310;2023-04-29T02:17:13;27.40;79.90
41722;DHT22;27407;24.142;-110.310;2023-04-29T02:19:39;27.20;80.50
41722;DHT22;27407;24.142;-110.310;2023-04-29T02:22:06;27.20;81.90
41722;DHT22;27407;24.142;-110.310;2023-04-29T02:24:33;27.00;82.80
41722;DHT22;27407;24.142;-110.310;2023-04-29T02:27:00;26.90;83.70
41722;DHT22;27407;24.142;-110.310;2023-04-29T02:29:31;26.80;85.10
41722;DHT22;27407;24.142;-110.310;2023-04-29T02:31:58;26.50;86.80
41722;DHT22;27407;24.142;-110.310;2023-04-29T02:34:25;26.30;88.50
41722;DHT22;27407;24.142;-110.310;2023-04-29T02:36:51;26.20;90.10
41722;DHT22;27407;24.142;-110.310;2023-04-29T02:39:18;26.00;90.60
41722;DHT22;27407;24.142;-110.310;2023-04-29T02:41:48;26.20;91.50
41722;DHT22;27407;24.142;-110.310;2023-04-29T02:44:15;26.10;92.10
41722;DHT22;27407;24.142;-110.310;2023-04-29T02:46:42;25.90;92.90
41722;DHT22;27407;24.142;-110.310;2023-04-29T02:49:12;25.70;93.90
41722;DHT22;27407;24.142;-110.310;2023-04-29T02:51:39;25.60;95.10
41722;DHT22;27407;24.142;-110.310;2023-04-29T02:54:06;25.50;96.20
41722;DHT22;27407;24.142;-110.310;2023-04-29T02:56:33;25.30;97.80
41722;DHT22;27407;24.142;-110.310;2023-04-29T02:58:59;25.20;99.70
41722;DHT22;27407;24.142;-110.310;2023-04-29T03:01:26;25.10;99.90
41722;DHT22;27407;24.142;-110.310;2023-04-29T03:03:54;24.80;99.90
41722;DHT22;27407;24.142;-110.310;2023-04-29T03:06:20;24.80;99.90
41722;DHT22;27407;24.142;-110.310;2023-04-29T03:08:47;24.80;99.90
41722;DHT22;27407;24.142;-110.310;2023-04-29T03:11:14;24.70;99.90
41722;DHT22;27407;24.142;-110.310;2023-04-29T03:13:40;24.70;99.90
41722;DHT22;27407;24.142;-110.310;2023-04-29T03:16:07;24.50;99.90
41722;DHT22;27407;24.142;-110.310;2023-04-29T03:18:34;24.30;99.90
41722;DHT22;27407;24.142;-110.310;2023-04-29T03:21:00;24.10;99.90
41722;DHT22;27407;24.142;-110.310;2023-04-29T03:23:29;24.20;99.90
41722;DHT22;27407;24.142;-110.310;2023-04-29T03:25:56;24.00;99.90
41722;DHT22;27407;24.142;-110.310;2023-04-29T03:28:22;24.10;99.90
41722;DHT22;27407;24.142;-110.310;2023-04-29T03:30:49;23.70;99.90
41722;DHT22;27407;24.142;-110.310;2023-04-29T03:33:16;23.50;99.90
41722;DHT22;27407;24.142;-110.310;2023-04-29T03:35:43;23.40;99.90
41722;DHT22;27407;24.142;-110.310;2023-04-29T03:38:10;23.50;99.90
41722;DHT22;27407;24.142;-110.310;2023-04-29T03:40:37;23.30;99.90
41722;DHT22;27407;24.142;-110.310;2023-04-29T03:43:04;23.30;99.90
41722;DHT22;27407;24.142;-110.310;2023-04-29T03:45:31;23.10;99.90
41722;DHT22;27407;24.142;-110.310;2023-04-29T03:47:58;23.00;99.90
41722;DHT22;27407;24.142;-110.310;2023-04-29T03:50:32;22.80;99.90
41722;DHT22;27407;24.142;-110.310;2023-04-29T03:52:58;22.60;99.90
41722;DHT22;27407;24.142;-110.310;2023-04-29T03:55:25;22.60;99.90
41722;DHT22;27407;24.142;-110.310;2023-04-29T03:57:52;22.60;99.90
41722;DHT22;27407;24.142;-110.310;2023-04-29T04:00:18;22.50;99.90
41722;DHT22;27407;24.142;-110.310;2023-04-29T04:02:45;22.10;99.90
41722;DHT22;27407;24.142;-110.310;2023-04-29T04:05:12;22.20;99.90
41722;DHT22;27407;24.142;-110.310;2023-04-29T04:07:39;21.90;99.90
41722;DHT22;27407;24.142;-110.310;2023-04-29T04:10:05;22.00;99.90
41722;DHT22;27407;24.142;-110.310;2023-04-29T04:12:32;22.10;99.90
41722;DHT22;27407;24.142;-110.310;2023-04-29T04:14:59;22.20;99.90
41722;DHT22;27407;24.142;-110.310;2023-04-29T04:17:25;22.10;99.90
41722;DHT22;27407;24.142;-110.310;2023-04-29T04:19:52;22.30;99.90
41722;DHT22;27407;24.142;-110.310;2023-04-29T04:22:19;22.30;99.90
41722;DHT22;27407;24.142;-110.310;2023-04-29T04:24:46;22.20;99.90
41722;DHT22;27407;24.142;-110.310;2023-04-29T04:27:12;22.10;99.90
41722;DHT22;27407;24.142;-110.310;2023-04-29T04:29:39;22.10;99.90
41722;DHT22;27407;24.142;-110.310;2023-04-29T04:32:08;21.90;99.90
41722;DHT22;27407;24.142;-110.310;2023-04-29T04:34:36;22.10;99.90
41722;DHT22;27407;24.142;-110.310;2023-04-29T04:37:09;22.20;99.90
41722;DHT22;27407;24.142;-110.310;2023-04-29T04:39:39;22.10;99.90
41722;DHT22;27407;24.142;-110.310;2023-04-29T04:42:06;21.80;99.90
41722;DHT22;27407;24.142;-110.310;2023-04-29T04:44:32;21.80;99.90
41722;DHT22;27407;24.142;-110.310;2023-04-29T04:46:59;21.50;99.90
41722;DHT22;27407;24.142;-110.310;2023-04-29T04:49:28;21.50;99.90
41722;DHT22;27407;24.142;-110.310;2023-04-29T04:52:01;21.40;99.90
41722;DHT22;27407;24.142;-110.310;2023-04-29T04:54:28;21.10;99.90
41722;DHT22;27407;24.142;-110.310;2023-04-29T04:56:55;21.10;99.90
41722;DHT22;27407;24.142;-110.310;2023-04-29T04:59:21;21.00;99.90
41722;DHT22;27407;24.142;-110.310;2023-04-29T05:01:48;20.90;99.90
41722;DHT22;27407;24.142;-110.310;2023-04-29T05:04:14;21.10;99.90
41722;DHT22;27407;24.142;-110.310;2023-04-29T05:06:41;21.30;99.90
41722;DHT22;27407;24.142;-110.310;2023-04-29T05:09:08;21.20;99.90
41722;DHT22;27407;24.142;-110.310;2023-04-29T05:11:34;21.20;99.90
41722;DHT22;27407;24.142;-110.310;2023-04-29T05:14:03;21.10;99.90
41722;DHT22;27407;24.142;-110.310;2023-04-29T05:16:30;21.10;99.90
41722;DHT22;27407;24.142;-110.310;2023-04-29T05:18:57;21.10;99.90
41722;DHT22;27407;24.142;-110.310;2023-04-29T05:21:23;21.00;99.90
41722;DHT22;27407;24.142;-110.310;2023-04-29T05:23:50;21.10;99.90
41722;DHT22;27407;24.142;-110.310;2023-04-29T05:26:17;21.00;99.90
41722;DHT22;27407;24.142;-110.310;2023-04-29T05:28:43;21.00;99.90
41722;DHT22;27407;24.142;-110.310;2023-04-29T05:31:10;21.10;99.90
41722;DHT22;27407;24.142;-110.310;2023-04-29T05:33:37;21.00;99.90
41722;DHT22;27407;24.142;-110.310;2023-04-29T05:36:03;21.00;99.90
41722;DHT22;27407;24.142;-110.310;2023-04-29T05:38:31;21.10;99.90
41722;DHT22;27407;24.142;-110.310;2023-04-29T05:40:58;21.00;99.90
41722;DHT22;27407;24.142;-110.310;2023-04-29T05:43:27;21.00;99.90
41722;DHT22;27407;24.142;-110.310;2023-04-29T05:45:54;21.10;99.90
41722;DHT22;27407;24.142;-110.310;2023-04-29T05:48:21;21.20;99.90
41722;DHT22;27407;24.142;-110.310;2023-04-29T05:50:48;21.10;99.90
41722;DHT22;27407;24.142;-110.310;2023-04-29T05:53:17;21.00;99.90
41722;DHT22;27407;24.142;-110.310;2023-04-29T05:55:44;20.90;99.90
41722;DHT22;27407;24.142;-110.310;2023-04-29T05:58:12;20.70;99.90
41722;DHT22;27407;24.142;-110.310;2023-04-29T06:00:40;20.80;99.90
41722;DHT22;27407;24.142;-110.310;2023-04-29T06:03:09;20.90;99.90
41722;DHT22;27407;24.142;-110.310;2023-04-29T06:05:37;20.60;99.90
41722;DHT22;27407;24.142;-110.310;2023-04-29T06:08:04;20.80;99.90
41722;DHT22;27407;24.142;-110.310;2023-04-29T06:10:31;20.80;99.90
41722;DHT22;27407;24.142;-110.310;2023-04-29T06:12:58;20.80;99.90
41722;DHT22;27407;24.142;-110.310;2023-04-29T06:15:25;20.80;99.90
41722;DHT22;27407;24.142;-110.310;2023-04-29T06:17:52;20.70;99.90
41722;DHT22;27407;24.142;-110.310;2023-04-29T06:20:19;20.80;99.90
41722;DHT22;27407;24.142;-110.310;2023-04-29T06:22:46;20.80;99.90
41722;DHT22;27407;24.142;-110.310;2023-04-29T06:25:12;20.70;99.90
41722;DHT22;27407;24.142;-110.310;2023-04-29T06:27:39;20.60;99.90
41722;DHT22;27407;24.142;-110.310;2023-04-29T06:30:06;20.80;99.90
41722;DHT22;27407;24.142;-110.310;2023-04-29T06:32:33;20.90;99.90
41722;DHT22;27407;24.142;-110.310;2023-04-29T06:34:59;20.80;99.90
41722;DHT22;27407;24.142;-110.310;2023-04-29T06:37:26;20.70;99.90
41722;DHT22;27407;24.142;-110.310;2023-04-29T06:39:53;20.80;99.90
41722;DHT22;27407;24.142;-110.310;2023-04-29T06:42:20;20.60;99.90
41722;DHT22;27407;24.142;-110.310;2023-04-29T06:44:47;20.60;99.90
41722;DHT22;27407;24.142;-110.310;2023-04-29T06:47:13;20.70;99.90
41722;DHT22;27407;24.142;-110.310;2023-04-29T06:49:40;20.60;99.90
41722;DHT22;27407;24.142;-110.310;2023-04-29T06:52:08;20.60;99.90
41722;DHT22;27407;24.142;-110.310;2023-04-29T06:54:38;20.60;99.90
41722;DHT22;27407;24.142;-110.310;2023-04-29T06:57:05;20.60;99.90
41722;DHT22;27407;24.142;-110.310;2023-04-29T06:59:32;20.60;99.90
41722;DHT22;27407;24.142;-110.310;2023-04-29T07:02:04;20.70;99.90
41722;DHT22;27407;24.142;-110.310;2023-04-29T07:04:31;20.60;99.90
41722;DHT22;27407;24.142;-110.310;2023-04-29T07:06:58;20.70;99.90
41722;DHT22;27407;24.142;-110.310;2023-04-29T07:09:25;20.80;99.90
41722;DHT22;27407;24.142;-110.310;2023-04-29T07:11:55;20.80;99.90
41722;DHT22;27407;24.142;-110.310;2023-04-29T07:14:21;20.80;99.90
41722;DHT22;27407;24.142;-110.310;2023-04-29T07:16:57;20.70;99.90
41722;DHT22;27407;24.142;-110.310;2023-04-29T07:19:23;20.80;99.90
41722;DHT22;27407;24.142;-110.310;2023-04-29T07:21:56;20.70;99.90
41722;DHT22;27407;24.142;-110.310;2023-04-29T07:24:23;20.70;99.90
41722;DHT22;27407;24.142;-110.310;2023-04-29T07:26:50;20.60;99.90
41722;DHT22;27407;24.142;-110.310;2023-04-29T07:29:17;20.40;99.90
41722;DHT22;27407;24.142;-110.310;2023-04-29T07:31:43;20.50;99.90
41722;DHT22;27407;24.142;-110.310;2023-04-29T07:34:10;20.40;99.90
41722;DHT22;27407;24.142;-110.310;2023-04-29T07:36:37;20.50;99.90
41722;DHT22;27407;24.142;-110.310;2023-04-29T07:39:04;20.60;99.90
41722;DHT22;27407;24.142;-110.310;2023-04-29T07:41:31;20.50;99.90
41722;DHT22;27407;24.142;-110.310;2023-04-29T07:43:58;20.40;99.90
41722;DHT22;27407;24.142;-110.310;2023-04-29T07:46:24;20.50;99.90
41722;DHT22;27407;24.142;-110.310;2023-04-29T07:48:51;20.50;99.90
41722;DHT22;27407;24.142;-110.310;2023-04-29T07:51:18;20.60;99.90
41722;DHT22;27407;24.142;-110.310;2023-04-29T07:53:44;20.50;99.90
41722;DHT22;27407;24.142;-110.310;2023-04-29T07:56:11;20.40;99.90
41722;DHT22;27407;24.142;-110.310;2023-04-29T07:58:38;20.40;99.90
41722;DHT22;27407;24.142;-110.310;2023-04-29T08:01:09;20.30;99.90
41722;DHT22;27407;24.142;-110.310;2023-04-29T08:03:37;20.30;99.90
41722;DHT22;27407;24.142;-110.310;2023-04-29T08:06:04;20.30;99.90
41722;DHT22;27407;24.142;-110.310;2023-04-29T08:08:31;20.30;99.90
41722;DHT22;27407;24.142;-110.310;2023-04-29T08:10:58;20.20;99.90
41722;DHT22;27407;24.142;-110.310;2023-04-29T08:13:25;20.20;99.90
41722;DHT22;27407;24.142;-110.310;2023-04-29T08:15:51;20.10;99.90
41722;DHT22;27407;24.142;-110.310;2023-04-29T08:18:19;20.00;99.90
41722;DHT22;27407;24.142;-110.310;2023-04-29T08:20:47;19.90;99.90
41722;DHT22;27407;24.142;-110.310;2023-04-29T08:23:14;19.80;99.90
41722;DHT22;27407;24.142;-110.310;2023-04-29T08:25:42;19.70;99.90
41722;DHT22;27407;24.142;-110.310;2023-04-29T08:28:09;19.70;99.90
41722;DHT22;27407;24.142;-110.310;2023-04-29T08:30:42;19.70;99.90
41722;DHT22;27407;24.142;-110.310;2023-04-29T08:33:08;19.50;99.90
41722;DHT22;27407;24.142;-110.310;2023-04-29T08:35:37;19.50;99.90
41722;DHT22;27407;24.142;-110.310;2023-04-29T08:38:04;19.50;99.90
41722;DHT22;27407;24.142;-110.310;2023-04-29T08:40:35;19.50;99.90
41722;DHT22;27407;24.142;-110.310;2023-04-29T08:43:05;19.40;99.90
41722;DHT22;27407;24.142;-110.310;2023-04-29T08:45:32;19.30;99.90
41722;DHT22;27407;24.142;-110.310;2023-04-29T08:48:03;19.20;99.90
41722;DHT22;27407;24.142;-110.310;2023-04-29T08:50:31;19.20;99.90
41722;DHT22;27407;24.142;-110.310;2023-04-29T08:52:58;19.40;99.90
41722;DHT22;27407;24.142;-110.310;2023-04-29T08:55:24;19.40;99.90
41722;DHT22;27407;24.142;-110.310;2023-04-29T08:57:54;19.40;99.90
41722;DHT22;27407;24.142;-110.310;2023-04-29T09:00:22;19.30;99.90
41722;DHT22;27407;24.142;-110.310;2023-04-29T09:02:50;19.40;99.90
41722;DHT22;27407;24.142;-110.310;2023-04-29T09:05:19;19.40;99.90
41722;DHT22;27407;24.142;-110.310;2023-04-29T09:07:47;19.30;99.90
41722;DHT22;27407;24.142;-110.310;2023-04-29T09:10:15;19.30;99.90
41722;DHT22;27407;24.142;-110.310;2023-04-29T09:12:42;19.30;99.90
41722;DHT22;27407;24.142;-110.310;2023-04-29T09:15:09;19.10;99.90
41722;DHT22;27407;24.142;-110.310;2023-04-29T09:17:46;19.00;99.90
41722;DHT22;27407;24.142;-110.310;2023-04-29T09:20:26;18.90;99.90
41722;DHT22;27407;24.142;-110.310;2023-04-29T09:22:53;18.90;99.90
41722;DHT22;27407;24.142;-110.310;2023-04-29T09:25:21;18.90;99.90
41722;DHT22;27407;24.142;-110.310;2023-04-29T09:27:48;18.90;99.90
41722;DHT22;27407;24.142;-110.310;2023-04-29T09:30:15;18.50;99.90
41722;DHT22;27407;24.142;-110.310;2023-04-29T09:32:42;18.40;99.90
41722;DHT22;27407;24.142;-110.310;2023-04-29T09:35:24;18.30;99.90
41722;DHT22;27407;24.142;-110.310;2023-04-29T09:37:53;18.20;99.90
41722;DHT22;27407;24.142;-110.310;2023-04-29T09:40:33;17.90;99.90
41722;DHT22;27407;24.142;-110.310;2023-04-29T09:43:01;17.80;99.90
41722;DHT22;27407;24.142;-110.310;2023-04-29T09:45:35;17.70;99.90
41722;DHT22;27407;24.142;-110.310;2023-04-29T09:48:05;17.60;99.90
41722;DHT22;27407;24.142;-110.310;2023-04-29T09:50:32;17.60;99.90
41722;DHT22;27407;24.142;-110.310;2023-04-29T09:52:59;17.60;99.90
41722;DHT22;27407;24.142;-110.310;2023-04-29T09:55:26;17.50;99.90
41722;DHT22;27407;24.142;-110.310;2023-04-29T09:57:53;17.50;99.90
41722;DHT22;27407;24.142;-110.310;2023-04-29T10:00:20;17.50;99.90
41722;DHT22;27407;24.142;-110.310;2023-04-29T10:02:48;17.50;99.90
41722;DHT22;27407;24.142;-110.310;2023-04-29T10:05:18;17.60;99.90
41722;DHT22;27407;24.142;-110.310;2023-04-29T10:07:46;17.60;99.90
41722;DHT22;27407;24.142;-110.310;2023-04-29T10:10:14;17.50;99.90
41722;DHT22;27407;24.142;-110.310;2023-04-29T10:12:42;17.60;99.90
41722;DHT22;27407;24.142;-110.310;2023-04-29T10:15:34;17.70;99.90
41722;DHT22;27407;24.142;-110.310;2023-04-29T10:18:17;17.70;99.90
41722;DHT22;27407;24.142;-110.310;2023-04-29T10:20:46;17.70;99.90
41722;DHT22;27407;24.142;-110.310;2023-04-29T10:23:14;17.90;99.90
41722;DHT22;27407;24.142;-110.310;2023-04-29T10:25:42;17.90;99.90
41722;DHT22;27407;24.142;-110.310;2023-04-29T10:28:13;17.80;99.90
41722;DHT22;27407;24.142;-110.310;2023-04-29T10:30:46;17.80;99.90
41722;DHT22;27407;24.142;-110.310;2023-04-29T10:33:15;17.70;99.90
41722;DHT22;27407;24.142;-110.310;2023-04-29T10:35:47;17.70;99.90
41722;DHT22;27407;24.142;-110.310;2023-04-29T10:38:27;17.70;99.90
41722;DHT22;27407;24.142;-110.310;2023-04-29T10:40:57;17.80;99.90
41722;DHT22;27407;24.142;-110.310;2023-04-29T10:43:27;17.60;99.90
41722;DHT22;27407;24.142;-110.310;2023-04-29T10:48:46;17.70;99.90
41722;DHT22;27407;24.142;-110.310;2023-04-29T10:54:14;17.60;99.90
41722;DHT22;27407;24.142;-110.310;2023-04-29T10:56:47;17.50;99.90
41722;DHT22;27407;24.142;-110.310;2023-04-29T10:59:22;17.50;99.90
41722;DHT22;27407;24.142;-110.310;2023-04-29T11:02:09;17.50;99.90
41722;DHT22;27407;24.142;-110.310;2023-04-29T11:05:08;17.60;99.90
41722;DHT22;27407;24.142;-110.310;2023-04-29T11:07:35;17.60;99.90
41722;DHT22;27407;24.142;-110.310;2023-04-29T11:10:02;17.80;99.90
41722;DHT22;27407;24.142;-110.310;2023-04-29T11:12:29;17.70;99.90
41722;DHT22;27407;24.142;-110.310;2023-04-29T11:14:57;17.70;99.90
41722;DHT22;27407;24.142;-110.310;2023-04-29T11:17:36;17.80;99.90
41722;DHT22;27407;24.142;-110.310;2023-04-29T11:20:04;17.70;99.90
41722;DHT22;27407;24.142;-110.310;2023-04-29T11:22:35;17.60;99.90
41722;DHT22;27407;24.142;-110.310;2023-04-29T11:25:05;17.70;99.90
41722;DHT22;27407;24.142;-110.310;2023-04-29T11:27:33;17.90;99.90
41722;DHT22;27407;24.142;-110.310;2023-04-29T11:30:01;17.90;99.90
41722;DHT22;27407;24.142;-110.310;2023-04-29T11:32:35;17.90;99.90
41722;DHT22;27407;24.142;-110.310;2023-04-29T11:35:08;18.10;99.90
41722;DHT22;27407;24.142;-110.310;2023-04-29T11:37:35;18.10;99.90
41722;DHT22;27407;24.142;-110.310;2023-04-29T11:40:02;18.00;99.90
41722;DHT22;27407;24.142;-110.310;2023-04-29T11:42:29;18.00;99.90
41722;DHT22;27407;24.142;-110.310;2023-04-29T11:44:56;17.90;99.90
41722;DHT22;27407;24.142;-110.310;2023-04-29T11:47:29;17.80;99.90
41722;DHT22;27407;24.142;-110.310;2023-04-29T11:50:06;17.80;99.90
41722;DHT22;27407;24.142;-110.310;2023-04-29T11:52:37;17.80;99.90
41722;DHT22;27407;24.142;-110.310;2023-04-29T11:55:08;17.70;99.90
41722;DHT22;27407;24.142;-110.310;2023-04-29T11:57:35;17.60;99.90
41722;DHT22;27407;24.142;-110.310;2023-04-29T12:00:03;17.60;99.90
41722;DHT22;27407;24.142;-110.310;2023-04-29T12:02:34;17.50;99.90
41722;DHT22;27407;24.142;-110.310;2023-04-29T12:05:05;17.40;99.90
41722;DHT22;27407;24.142;-110.310;2023-04-29T12:07:36;17.50;99.90
41722;DHT22;27407;24.142;-110.310;2023-04-29T12:10:06;17.70;99.90
41722;DHT22;27407;24.142;-110.310;2023-04-29T12:12:33;17.70;99.90
41722;DHT22;27407;24.142;-110.310;2023-04-29T12:15:05;17.70;99.90
41722;DHT22;27407;24.142;-110.310;2023-04-29T12:17:33;17.90;99.90
41722;DHT22;27407;24.142;-110.310;2023-04-29T12:19:59;17.70;99.90
41722;DHT22;27407;24.142;-110.310;2023-04-29T12:22:32;17.60;99.90
41722;DHT22;27407;24.142;-110.310;2023-04-29T12:25:01;17.70;99.90
41722;DHT22;27407;24.142;-110.310;2023-04-29T12:27:28;17.60;99.90
41722;DHT22;27407;24.142;-110.310;2023-04-29T12:29:56;17.50;99.90
41722;DHT22;27407;24.142;-110.310;2023-04-29T12:32:24;17.60;99.90
41722;DHT22;27407;24.142;-110.310;2023-04-29T12:34:54;17.60;99.90
41722;DHT22;27407;24.142;-110.310;2023-04-29T12:37:21;17.60;99.90
41722;DHT22;27407;24.142;-110.310;2023-04-29T12:39:49;17.60;99.90
41722;DHT22;27407;24.142;-110.310;2023-04-29T12:42:16;17.60;99.90
41722;DHT22;27407;24.142;-110.310;2023-04-29T12:44:47;17.60;99.90
41722;DHT22;27407;24.142;-110.310;2023-04-29T12:47:14;17.50;99.90
41722;DHT22;27407;24.142;-110.310;2023-04-29T12:49:47;17.70;99.90
41722;DHT22;27407;24.142;-110.310;2023-04-29T12:52:15;17.60;99.90
41722;DHT22;27407;24.142;-110.310;2023-04-29T12:54:41;17.50;99.90
41722;DHT22;27407;24.142;-110.310;2023-04-29T12:57:11;17.40;99.90
41722;DHT22;27407;24.142;-110.310;2023-04-29T12:59:39;17.50;99.90
41722;DHT22;27407;24.142;-110.310;2023-04-29T13:02:06;17.50;99.90
41722;DHT22;27407;24.142;-110.310;2023-04-29T13:04:32;17.60;99.90
41722;DHT22;27407;24.142;-110.310;2023-04-29T13:06:59;17.60;99.90
41722;DHT22;27407;24.142;-110.310;2023-04-29T13:09:26;17.80;99.90
41722;DHT22;27407;24.142;-110.310;2023-04-29T13:11:53;17.90;99.90
41722;DHT22;27407;24.142;-110.310;2023-04-29T13:14:20;17.70;99.90
41722;DHT22;27407;24.142;-110.310;2023-04-29T13:16:46;17.70;99.90
41722;DHT22;27407;24.142;-110.310;2023-04-29T13:19:13;17.70;99.90
41722;DHT22;27407;24.142;-110.310;2023-04-29T13:21:40;17.80;99.90
41722;DHT22;27407;24.142;-110.310;2023-04-29T13:24:07;17.80;99.90
41722;DHT22;27407;24.142;-110.310;2023-04-29T13:26:35;17.80;99.90
41722;DHT22;27407;24.142;-110.310;2023-04-29T13:29:03;17.80;99.90
41722;DHT22;27407;24.142;-110.310;2023-04-29T13:31:29;17.90;99.90
41722;DHT22;27407;24.142;-110.310;2023-04-29T13:33:56;18.00;99.90
41722;DHT22;27407;24.142;-110.310;2023-04-29T13:36:23;18.10;99.90
41722;DHT22;27407;24.142;-110.310;2023-04-29T13:38:49;18.20;99.90
41722;DHT22;27407;24.142;-110.310;2023-04-29T13:41:19;18.20;99.90
41722;DHT22;27407;24.142;-110.310;2023-04-29T13:43:49;18.20;99.90
41722;DHT22;27407;24.142;-110.310;2023-04-29T13:46:15;18.30;99.90
41722;DHT22;27407;24.142;-110.310;2023-04-29T13:48:42;18.40;99.90
41722;DHT22;27407;24.142;-110.310;2023-04-29T13:51:09;18.40;99.90
41722;DHT22;27407;24.142;-110.310;2023-04-29T13:53:36;18.50;99.90
41722;DHT22;27407;24.142;-110.310;2023-04-29T13:56:03;18.60;99.90
41722;DHT22;27407;24.142;-110.310;2023-04-29T13:58:29;18.80;99.90
41722;DHT22;27407;24.142;-110.310;2023-04-29T14:00:56;18.90;99.90
41722;DHT22;27407;24.142;-110.310;2023-04-29T14:03:23;19.00;99.90
41722;DHT22;27407;24.142;-110.310;2023-04-29T14:05:49;19.00;99.90
41722;DHT22;27407;24.142;-110.310;2023-04-29T14:08:16;19.10;99.90
41722;DHT22;27407;24.142;-110.310;2023-04-29T14:10:43;19.30;99.90
41722;DHT22;27407;24.142;-110.310;2023-04-29T14:13:09;19.30;99.90
41722;DHT22;27407;24.142;-110.310;2023-04-29T14:15:36;19.20;99.90
41722;DHT22;27407;24.142;-110.310;2023-04-29T14:18:02;19.30;99.90
41722;DHT22;27407;24.142;-110.310;2023-04-29T14:20:29;19.40;99.90
41722;DHT22;27407;24.142;-110.310;2023-04-29T14:22:56;19.40;99.90
41722;DHT22;27407;24.142;-110.310;2023-04-29T14:25:22;19.40;99.90
41722;DHT22;27407;24.142;-110.310;2023-04-29T14:27:49;19.50;99.90
41722;DHT22;27407;24.142;-110.310;2023-04-29T14:30:16;19.60;99.90
41722;DHT22;27407;24.142;-110.310;2023-04-29T14:32:49;19.70;99.90
41722;DHT22;27407;24.142;-110.310;2023-04-29T14:35:16;19.90;99.90
41722;DHT22;27407;24.142;-110.310;2023-04-29T14:37:43;20.10;99.90
41722;DHT22;27407;24.142;-110.310;2023-04-29T14:40:10;20.30;99.90
41722;DHT22;27407;24.142;-110.310;2023-04-29T14:42:36;20.60;99.90
41722;DHT22;27407;24.142;-110.310;2023-04-29T14:45:03;20.70;99.90
41722;DHT22;27407;24.142;-110.310;2023-04-29T14:47:30;20.70;99.90
41722;DHT22;27407;24.142;-110.310;2023-04-29T14:49:56;20.90;99.90
41722;DHT22;27407;24.142;-110.310;2023-04-29T14:52:23;21.10;99.90
41722;DHT22;27407;24.142;-110.310;2023-04-29T14:54:50;21.40;99.90
41722;DHT22;27407;24.142;-110.310;2023-04-29T14:57:17;21.50;99.90
41722;DHT22;27407;24.142;-110.310;2023-04-29T14:59:43;21.70;99.90
41722;DHT22;27407;24.142;-110.310;2023-04-29T15:02:10;22.00;99.90
41722;DHT22;27407;24.142;-110.310;2023-04-29T15:04:37;22.20;99.90
41722;DHT22;27407;24.142;-110.310;2023-04-29T15:07:04;22.50;99.90
41722;DHT22;27407;24.142;-110.310;2023-04-29T15:09:31;22.60;99.90